sensor_id;sensor_type;location;lat;lon;timestamp;P1;durP1;ratioP1;P2;durP2;ratioP2
17147;SDS011;8689;47.364;8.796;2023-12-20T00:01:04;6.70;;;4.97;;
17147;SDS011;8689;47.364;8.796;2023-12-20T00:03:32;6.23;;;5.00;;
17147;SDS011;8689;47.364;8.796;2023-12-20T00:06:00;5.47;;;4.97;;
17147;SDS011;8689;47.364;8.796;2023-12-20T00:08:28;6.07;;;4.87;;
17147;SDS011;8689;47.364;8.796;2023-12-20T00:10:56;6.87;;;5.03;;
17147;SDS011;8689;47.364;8.796;2023-12-20T00:13:25;6.17;;;4.77;;
17147;SDS011;8689;47.364;8.796;2023-12-20T00:15:52;5.37;;;4.67;;
17147;SDS011;8689;47.364;8.796;2023-12-20T00:18:26;5.50;;;4.30;;
17147;SDS011;8689;47.364;8.796;2023-12-20T00:20:53;6.40;;;4.80;;
17147;SDS011;8689;47.364;8.796;2023-12-20T00:23:24;5.87;;;5.10;;
17147;SDS011;8689;47.364;8.796;2023-12-20T00:25:52;5.40;;;4.57;;
17147;SDS011;8689;47.364;8.796;2023-12-20T00:28:20;6.63;;;5.03;;
17147;SDS011;8689;47.364;8.796;2023-12-20T00:30:48;5.97;;;5.23;;
17147;SDS011;8689;47.364;8.796;2023-12-20T00:33:15;5.77;;;4.87;;
17147;SDS011;8689;47.364;8.796;2023-12-20T00:35:45;5.60;;;4.63;;
17147;SDS011;8689;47.364;8.796;2023-12-20T00:38:15;7.83;;;5.00;;
17147;SDS011;8689;47.364;8.796;2023-12-20T00:40:57;6.47;;;5.03;;
17147;SDS011;8689;47.364;8.796;2023-12-20T00:43:25;5.77;;;5.20;;
17147;SDS011;8689;47.364;8.796;2023-12-20T00:45:53;5.93;;;4.80;;
17147;SDS011;8689;47.364;8.796;2023-12-20T00:48:21;5.23;;;4.70;;
17147;SDS011;8689;47.364;8.796;2023-12-20T00:50:50;6.37;;;4.97;;
17147;SDS011;8689;47.364;8.796;2023-12-20T00:53:17;8.03;;;5.20;;
17147;SDS011;8689;47.364;8.796;2023-12-20T00:55:45;6.33;;;5.30;;
17147;SDS011;8689;47.364;8.796;2023-12-20T00:58:14;6.53;;;4.90;;
17147;SDS011;8689;47.364;8.796;2023-12-20T01:00:45;5.03;;;4.33;;
17147;SDS011;8689;47.364;8.796;2023-12-20T01:03:15;5.47;;;4.97;;
17147;SDS011;8689;47.364;8.796;2023-12-20T01:05:42;6.43;;;4.33;;
17147;SDS011;8689;47.364;8.796;2023-12-20T01:08:12;5.30;;;4.80;;
17147;SDS011;8689;47.364;8.796;2023-12-20T01:10:39;5.60;;;4.47;;
17147;SDS011;8689;47.364;8.796;2023-12-20T01:13:07;5.17;;;4.67;;
17147;SDS011;8689;47.364;8.796;2023-12-20T01:15:35;6.00;;;4.53;;
17147;SDS011;8689;47.364;8.796;2023-12-20T01:18:03;8.63;;;4.77;;
17147;SDS011;8689;47.364;8.796;2023-12-20T01:20:32;5.33;;;4.53;;
17147;SDS011;8689;47.364;8.796;2023-12-20T01:23:00;6.67;;;5.23;;
17147;SDS011;8689;47.364;8.796;2023-12-20T01:25:29;4.83;;;4.23;;
17147;SDS011;8689;47.364;8.796;2023-12-20T01:27:56;5.27;;;4.73;;
17147;SDS011;8689;47.364;8.796;2023-12-20T01:30:23;4.93;;;4.43;;
17147;SDS011;8689;47.364;8.796;2023-12-20T01:32:51;6.20;;;5.00;;
17147;SDS011;8689;47.364;8.796;2023-12-20T01:35:19;6.83;;;5.10;;
17147;SDS011;8689;47.364;8.796;2023-12-20T01:37:46;5.57;;;4.93;;
17147;SDS011;8689;47.364;8.796;2023-12-20T01:40:14;5.37;;;4.87;;
17147;SDS011;8689;47.364;8.796;2023-12-20T01:42:44;5.83;;;4.63;;
17147;SDS011;8689;47.364;8.796;2023-12-20T01:45:11;4.93;;;4.43;;
17147;SDS011;8689;47.364;8.796;2023-12-20T01:47:39;5.00;;;4.50;;
17147;SDS011;8689;47.364;8.796;2023-12-20T01:50:07;5.73;;;4.77;;
17147;SDS011;8689;47.364;8.796;2023-12-20T01:52:36;5.50;;;5.00;;
17147;SDS011;8689;47.364;8.796;2023-12-20T01:55:04;5.67;;;5.07;;
17147;SDS011;8689;47.364;8.796;2023-12-20T01:57:38;7.00;;;5.20;;
17147;SDS011;8689;47.364;8.796;2023-12-20T02:00:09;6.73;;;5.60;;
17147;SDS011;8689;47.364;8.796;2023-12-20T02:02:39;7.47;;;6.07;;
17147;SDS011;8689;47.364;8.796;2023-12-20T02:05:07;7.10;;;6.27;;
17147;SDS011;8689;47.364;8.796;2023-12-20T02:07:35;8.23;;;6.37;;
17147;SDS011;8689;47.364;8.796;2023-12-20T02:10:03;6.97;;;5.90;;
17147;SDS011;8689;47.364;8.796;2023-12-20T02:12:31;7.70;;;6.27;;
17147;SDS011;8689;47.364;8.796;2023-12-20T02:15:00;7.93;;;6.23;;
17147;SDS011;8689;47.364;8.796;2023-12-20T02:17:29;7.47;;;6.33;;
17147;SDS011;8689;47.364;8.796;2023-12-20T02:19:58;7.93;;;5.43;;
17147;SDS011;8689;47.364;8.796;2023-12-20T02:22:36;8.57;;;6.63;;
17147;SDS011;8689;47.364;8.796;2023-12-20T02:25:03;8.20;;;6.70;;
17147;SDS011;8689;47.364;8.796;2023-12-20T02:27:31;7.53;;;6.37;;
17147;SDS011;8689;47.364;8.796;2023-12-20T02:29:59;7.27;;;6.30;;
17147;SDS011;8689;47.364;8.796;2023-12-20T02:32:27;7.27;;;6.40;;
17147;SDS011;8689;47.364;8.796;2023-12-20T02:34:54;6.53;;;5.83;;
17147;SDS011;8689;47.364;8.796;2023-12-20T02:37:22;6.97;;;6.07;;
17147;SDS011;8689;47.364;8.796;2023-12-20T02:39:52;8.27;;;7.23;;
17147;SDS011;8689;47.364;8.796;2023-12-20T02:42:19;7.77;;;6.97;;
17147;SDS011;8689;47.364;8.796;2023-12-20T02:44:47;7.90;;;7.00;;
17147;SDS011;8689;47.364;8.796;2023-12-20T02:47:15;7.43;;;6.67;;
17147;SDS011;8689;47.364;8.796;2023-12-20T02:49:43;7.10;;;6.40;;
17147;SDS011;8689;47.364;8.796;2023-12-20T02:52:14;6.63;;;6.00;;
17147;SDS011;8689;47.364;8.796;2023-12-20T02:54:41;7.27;;;6.37;;
17147;SDS011;8689;47.364;8.796;2023-12-20T02:57:10;8.97;;;7.10;;
17147;SDS011;8689;47.364;8.796;2023-12-20T02:59:37;7.53;;;6.50;;
17147;SDS011;8689;47.364;8.796;2023-12-20T03:02:07;7.87;;;7.03;;
17147;SDS011;8689;47.364;8.796;2023-12-20T03:04:34;7.43;;;6.83;;
17147;SDS011;8689;47.364;8.796;2023-12-20T03:07:01;7.67;;;6.77;;
17147;SDS011;8689;47.364;8.796;2023-12-20T03:09:29;8.20;;;7.10;;
17147;SDS011;8689;47.364;8.796;2023-12-20T03:11:58;7.47;;;6.77;;
17147;SDS011;8689;47.364;8.796;2023-12-20T03:14:28;7.73;;;6.93;;
17147;SDS011;8689;47.364;8.796;2023-12-20T03:16:56;7.00;;;6.30;;
17147;SDS011;8689;47.364;8.796;2023-12-20T03:19:25;7.23;;;6.47;;
17147;SDS011;8689;47.364;8.796;2023-12-20T03:21:52;7.33;;;6.20;;
17147;SDS011;8689;47.364;8.796;2023-12-20T03:24:20;6.43;;;5.27;;
17147;SDS011;8689;47.364;8.796;2023-12-20T03:26:48;5.80;;;5.17;;
17147;SDS011;8689;47.364;8.796;2023-12-20T03:29:15;5.97;;;5.20;;
17147;SDS011;8689;47.364;8.796;2023-12-20T03:31:45;6.10;;;5.20;;
17147;SDS011;8689;47.364;8.796;2023-12-20T03:34:13;5.40;;;4.87;;
17147;SDS011;8689;47.364;8.796;2023-12-20T03:36:41;8.70;;;4.67;;
17147;SDS011;8689;47.364;8.796;2023-12-20T03:39:08;6.73;;;4.60;;
17147;SDS011;8689;47.364;8.796;2023-12-20T03:41:36;4.47;;;4.07;;
17147;SDS011;8689;47.364;8.796;2023-12-20T03:44:03;5.03;;;4.33;;
17147;SDS011;8689;47.364;8.796;2023-12-20T03:46:30;4.23;;;3.60;;
17147;SDS011;8689;47.364;8.796;2023-12-20T03:49:00;4.50;;;4.10;;
17147;SDS011;8689;47.364;8.796;2023-12-20T03:51:29;5.37;;;4.33;;
17147;SDS011;8689;47.364;8.796;2023-12-20T03:54:01;6.03;;;3.90;;
17147;SDS011;8689;47.364;8.796;2023-12-20T03:56:30;5.40;;;4.13;;
17147;SDS011;8689;47.364;8.796;2023-12-20T03:58:58;4.30;;;3.83;;
17147;SDS011;8689;47.364;8.796;2023-12-20T04:01:25;3.90;;;3.50;;
17147;SDS011;8689;47.364;8.796;2023-12-20T04:03:52;5.47;;;3.10;;
17147;SDS011;8689;47.364;8.796;2023-12-20T04:06:23;3.67;;;3.17;;
17147;SDS011;8689;47.364;8.796;2023-12-20T04:08:51;3.80;;;3.33;;
17147;SDS011;8689;47.364;8.796;2023-12-20T04:11:18;4.73;;;3.00;;
17147;SDS011;8689;47.364;8.796;2023-12-20T04:13:46;3.17;;;2.87;;
17147;SDS011;8689;47.364;8.796;2023-12-20T04:16:18;7.03;;;3.20;;
17147;SDS011;8689;47.364;8.796;2023-12-20T04:18:45;3.03;;;2.67;;
17147;SDS011;8689;47.364;8.796;2023-12-20T04:21:13;4.67;;;2.97;;
17147;SDS011;8689;47.364;8.796;2023-12-20T04:23:43;3.70;;;2.67;;
17147;SDS011;8689;47.364;8.796;2023-12-20T04:26:11;3.07;;;2.67;;
17147;SDS011;8689;47.364;8.796;2023-12-20T04:28:39;3.13;;;2.80;;
17147;SDS011;8689;47.364;8.796;2023-12-20T04:31:07;3.23;;;2.93;;
17147;SDS011;8689;47.364;8.796;2023-12-20T04:33:35;3.10;;;2.80;;
17147;SDS011;8689;47.364;8.796;2023-12-20T04:36:03;4.03;;;2.70;;
17147;SDS011;8689;47.364;8.796;2023-12-20T04:38:35;3.47;;;2.90;;
17147;SDS011;8689;47.364;8.796;2023-12-20T04:41:05;3.10;;;2.70;;
17147;SDS011;8689;47.364;8.796;2023-12-20T04:43:33;5.10;;;2.80;;
17147;SDS011;8689;47.364;8.796;2023-12-20T04:46:00;3.13;;;2.83;;
17147;SDS011;8689;47.364;8.796;2023-12-20T04:48:27;3.03;;;2.37;;
17147;SDS011;8689;47.364;8.796;2023-12-20T04:50:54;2.77;;;2.50;;
17147;SDS011;8689;47.364;8.796;2023-12-20T04:53:22;3.00;;;2.60;;
17147;SDS011;8689;47.364;8.796;2023-12-20T04:55:51;3.10;;;2.80;;
17147;SDS011;8689;47.364;8.796;2023-12-20T04:58:20;3.03;;;2.73;;
17147;SDS011;8689;47.364;8.796;2023-12-20T05:00:49;4.07;;;2.87;;
17147;SDS011;8689;47.364;8.796;2023-12-20T05:03:17;3.10;;;2.70;;
17147;SDS011;8689;47.364;8.796;2023-12-20T05:05:46;3.17;;;2.87;;
17147;SDS011;8689;47.364;8.796;2023-12-20T05:08:13;3.23;;;2.60;;
17147;SDS011;8689;47.364;8.796;2023-12-20T05:10:41;2.63;;;2.43;;
17147;SDS011;8689;47.364;8.796;2023-12-20T05:13:11;2.63;;;2.43;;
17147;SDS011;8689;47.364;8.796;2023-12-20T05:15:41;2.60;;;2.30;;
17147;SDS011;8689;47.364;8.796;2023-12-20T05:18:08;2.50;;;2.30;;
17147;SDS011;8689;47.364;8.796;2023-12-20T05:20:43;3.03;;;2.73;;
17147;SDS011;8689;47.364;8.796;2023-12-20T05:23:26;2.70;;;2.43;;
17147;SDS011;8689;47.364;8.796;2023-12-20T05:25:54;3.03;;;2.37;;
17147;SDS011;8689;47.364;8.796;2023-12-20T05:28:21;2.13;;;1.93;;
17147;SDS011;8689;47.364;8.796;2023-12-20T05:30:53;2.57;;;2.37;;
17147;SDS011;8689;47.364;8.796;2023-12-20T05:33:21;2.27;;;2.07;;
17147;SDS011;8689;47.364;8.796;2023-12-20T05:35:50;3.03;;;2.50;;
17147;SDS011;8689;47.364;8.796;2023-12-20T05:38:32;3.30;;;2.97;;
17147;SDS011;8689;47.364;8.796;2023-12-20T05:41:00;2.70;;;2.50;;
17147;SDS011;8689;47.364;8.796;2023-12-20T05:43:45;2.60;;;2.13;;
17147;SDS011;8689;47.364;8.796;2023-12-20T05:46:20;2.03;;;1.80;;
17147;SDS011;8689;47.364;8.796;2023-12-20T05:48:47;2.07;;;1.80;;
17147;SDS011;8689;47.364;8.796;2023-12-20T05:51:19;2.40;;;2.07;;
17147;SDS011;8689;47.364;8.796;2023-12-20T05:53:49;1.90;;;1.70;;
17147;SDS011;8689;47.364;8.796;2023-12-20T05:56:17;1.83;;;1.73;;
17147;SDS011;8689;47.364;8.796;2023-12-20T05:58:45;2.40;;;2.07;;
17147;SDS011;8689;47.364;8.796;2023-12-20T06:01:14;2.50;;;2.17;;
17147;SDS011;8689;47.364;8.796;2023-12-20T06:03:44;3.00;;;2.37;;
17147;SDS011;8689;47.364;8.796;2023-12-20T06:06:16;2.07;;;1.87;;
17147;SDS011;8689;47.364;8.796;2023-12-20T06:08:44;3.00;;;2.40;;
17147;SDS011;8689;47.364;8.796;2023-12-20T06:11:17;2.93;;;2.50;;
17147;SDS011;8689;47.364;8.796;2023-12-20T06:13:44;2.10;;;1.90;;
17147;SDS011;8689;47.364;8.796;2023-12-20T06:29:55;2.90;;;2.63;;
17147;SDS011;8689;47.364;8.796;2023-12-20T06:32:38;2.97;;;2.67;;
17147;SDS011;8689;47.364;8.796;2023-12-20T06:35:22;2.83;;;2.53;;
17147;SDS011;8689;47.364;8.796;2023-12-20T06:37:52;2.73;;;2.30;;
17147;SDS011;8689;47.364;8.796;2023-12-20T06:40:20;2.97;;;2.57;;
17147;SDS011;8689;47.364;8.796;2023-12-20T06:42:51;4.87;;;2.27;;
17147;SDS011;8689;47.364;8.796;2023-12-20T06:48:09;2.13;;;1.90;;
17147;SDS011;8689;47.364;8.796;2023-12-20T06:50:38;2.43;;;1.90;;
17147;SDS011;8689;47.364;8.796;2023-12-20T06:53:06;2.30;;;2.10;;
17147;SDS011;8689;47.364;8.796;2023-12-20T06:55:35;3.03;;;2.40;;
17147;SDS011;8689;47.364;8.796;2023-12-20T06:58:03;2.63;;;2.10;;
17147;SDS011;8689;47.364;8.796;2023-12-20T07:00:30;2.40;;;2.17;;
17147;SDS011;8689;47.364;8.796;2023-12-20T07:03:00;3.53;;;2.57;;
17147;SDS011;8689;47.364;8.796;2023-12-20T07:05:29;2.27;;;2.00;;
17147;SDS011;8689;47.364;8.796;2023-12-20T07:07:56;2.40;;;2.17;;
17147;SDS011;8689;47.364;8.796;2023-12-20T07:10:24;2.10;;;1.90;;
17147;SDS011;8689;47.364;8.796;2023-12-20T07:12:51;2.27;;;1.83;;
17147;SDS011;8689;47.364;8.796;2023-12-20T07:15:20;2.20;;;1.87;;
17147;SDS011;8689;47.364;8.796;2023-12-20T07:17:48;3.80;;;2.10;;
17147;SDS011;8689;47.364;8.796;2023-12-20T07:20:17;2.53;;;2.30;;
17147;SDS011;8689;47.364;8.796;2023-12-20T07:22:44;2.47;;;2.00;;
17147;SDS011;8689;47.364;8.796;2023-12-20T07:25:11;2.70;;;2.20;;
17147;SDS011;8689;47.364;8.796;2023-12-20T07:27:39;2.57;;;2.20;;
17147;SDS011;8689;47.364;8.796;2023-12-20T07:30:07;2.20;;;2.00;;
17147;SDS011;8689;47.364;8.796;2023-12-20T07:32:35;2.50;;;2.10;;
17147;SDS011;8689;47.364;8.796;2023-12-20T07:35:02;2.80;;;1.97;;
17147;SDS011;8689;47.364;8.796;2023-12-20T07:37:32;3.67;;;2.03;;
17147;SDS011;8689;47.364;8.796;2023-12-20T07:39:59;3.43;;;2.30;;
17147;SDS011;8689;47.364;8.796;2023-12-20T07:42:27;2.87;;;2.47;;
17147;SDS011;8689;47.364;8.796;2023-12-20T07:44:55;2.30;;;2.00;;
17147;SDS011;8689;47.364;8.796;2023-12-20T07:47:22;2.77;;;2.30;;
17147;SDS011;8689;47.364;8.796;2023-12-20T07:49:50;2.87;;;2.30;;
17147;SDS011;8689;47.364;8.796;2023-12-20T07:52:18;1.90;;;1.70;;
17147;SDS011;8689;47.364;8.796;2023-12-20T07:54:49;2.33;;;2.00;;
17147;SDS011;8689;47.364;8.796;2023-12-20T07:57:16;2.30;;;1.97;;
17147;SDS011;8689;47.364;8.796;2023-12-20T07:59:43;2.20;;;1.90;;
17147;SDS011;8689;47.364;8.796;2023-12-20T08:02:10;3.97;;;2.33;;
17147;SDS011;8689;47.364;8.796;2023-12-20T08:04:38;2.70;;;2.03;;
17147;SDS011;8689;47.364;8.796;2023-12-20T08:07:06;4.93;;;2.13;;
17147;SDS011;8689;47.364;8.796;2023-12-20T08:09:34;2.50;;;1.83;;
17147;SDS011;8689;47.364;8.796;2023-12-20T08:12:03;2.00;;;1.80;;
17147;SDS011;8689;47.364;8.796;2023-12-20T08:14:31;2.73;;;1.97;;
17147;SDS011;8689;47.364;8.796;2023-12-20T08:16:58;1.83;;;1.60;;
17147;SDS011;8689;47.364;8.796;2023-12-20T08:19:25;2.30;;;1.70;;
17147;SDS011;8689;47.364;8.796;2023-12-20T08:21:53;1.90;;;1.70;;
17147;SDS011;8689;47.364;8.796;2023-12-20T08:24:22;2.13;;;1.90;;
17147;SDS011;8689;47.364;8.796;2023-12-20T08:26:50;1.93;;;1.77;;
17147;SDS011;8689;47.364;8.796;2023-12-20T08:29:19;2.57;;;1.80;;
17147;SDS011;8689;47.364;8.796;2023-12-20T08:31:47;1.60;;;1.50;;
17147;SDS011;8689;47.364;8.796;2023-12-20T08:34:19;2.60;;;1.97;;
17147;SDS011;8689;47.364;8.796;2023-12-20T08:36:46;1.90;;;1.77;;
17147;SDS011;8689;47.364;8.796;2023-12-20T08:39:13;2.00;;;1.80;;
17147;SDS011;8689;47.364;8.796;2023-12-20T08:41:43;1.90;;;1.50;;
17147;SDS011;8689;47.364;8.796;2023-12-20T08:44:10;2.17;;;1.60;;
17147;SDS011;8689;47.364;8.796;2023-12-20T08:46:40;1.43;;;1.30;;
17147;SDS011;8689;47.364;8.796;2023-12-20T08:49:07;1.80;;;1.40;;
17147;SDS011;8689;47.364;8.796;2023-12-20T08:51:35;1.80;;;1.43;;
17147;SDS011;8689;47.364;8.796;2023-12-20T08:54:05;2.47;;;2.10;;
17147;SDS011;8689;47.364;8.796;2023-12-20T08:56:33;3.47;;;1.90;;
17147;SDS011;8689;47.364;8.796;2023-12-20T08:59:01;2.13;;;1.50;;
17147;SDS011;8689;47.364;8.796;2023-12-20T09:01:29;2.03;;;1.60;;
17147;SDS011;8689;47.364;8.796;2023-12-20T09:03:59;2.13;;;1.60;;
17147;SDS011;8689;47.364;8.796;2023-12-20T09:06:26;1.77;;;1.63;;
17147;SDS011;8689;47.364;8.796;2023-12-20T09:08:54;3.43;;;1.73;;
17147;SDS011;8689;47.364;8.796;2023-12-20T09:11:21;2.60;;;1.93;;
17147;SDS011;8689;47.364;8.796;2023-12-20T09:13:48;2.27;;;1.87;;
17147;SDS011;8689;47.364;8.796;2023-12-20T09:16:16;2.50;;;1.80;;
17147;SDS011;8689;47.364;8.796;2023-12-20T09:18:43;2.43;;;1.60;;
17147;SDS011;8689;47.364;8.796;2023-12-20T09:21:12;1.57;;;1.43;;
17147;SDS011;8689;47.364;8.796;2023-12-20T09:23:40;1.77;;;1.57;;
17147;SDS011;8689;47.364;8.796;2023-12-20T09:26:08;2.87;;;1.83;;
17147;SDS011;8689;47.364;8.796;2023-12-20T09:28:35;1.90;;;1.70;;
17147;SDS011;8689;47.364;8.796;2023-12-20T09:31:04;2.93;;;2.03;;
17147;SDS011;8689;47.364;8.796;2023-12-20T09:33:31;2.10;;;1.53;;
17147;SDS011;8689;47.364;8.796;2023-12-20T09:35:59;2.53;;;1.97;;
17147;SDS011;8689;47.364;8.796;2023-12-20T09:38:28;2.47;;;1.90;;
17147;SDS011;8689;47.364;8.796;2023-12-20T09:40:56;3.37;;;1.80;;
17147;SDS011;8689;47.364;8.796;2023-12-20T09:43:24;1.93;;;1.73;;
17147;SDS011;8689;47.364;8.796;2023-12-20T09:45:53;2.37;;;2.10;;
17147;SDS011;8689;47.364;8.796;2023-12-20T09:48:27;2.10;;;1.90;;
17147;SDS011;8689;47.364;8.796;2023-12-20T09:50:56;2.47;;;2.27;;
17147;SDS011;8689;47.364;8.796;2023-12-20T09:53:25;2.93;;;1.47;;
17147;SDS011;8689;47.364;8.796;2023-12-20T09:55:59;1.60;;;1.43;;
17147;SDS011;8689;47.364;8.796;2023-12-20T09:58:49;1.83;;;1.60;;
17147;SDS011;8689;47.364;8.796;2023-12-20T10:01:16;2.77;;;2.10;;
17147;SDS011;8689;47.364;8.796;2023-12-20T10:03:59;1.93;;;1.67;;
17147;SDS011;8689;47.364;8.796;2023-12-20T10:06:29;2.17;;;1.90;;
17147;SDS011;8689;47.364;8.796;2023-12-20T10:08:58;2.13;;;1.90;;
17147;SDS011;8689;47.364;8.796;2023-12-20T10:11:30;2.40;;;1.90;;
17147;SDS011;8689;47.364;8.796;2023-12-20T10:13:59;3.07;;;2.03;;
17147;SDS011;8689;47.364;8.796;2023-12-20T10:16:27;2.37;;;1.70;;
17147;SDS011;8689;47.364;8.796;2023-12-20T10:18:55;3.17;;;1.80;;
17147;SDS011;8689;47.364;8.796;2023-12-20T10:21:26;2.17;;;1.90;;
17147;SDS011;8689;47.364;8.796;2023-12-20T10:23:53;2.20;;;1.97;;
17147;SDS011;8689;47.364;8.796;2023-12-20T10:26:21;2.37;;;1.93;;
17147;SDS011;8689;47.364;8.796;2023-12-20T10:28:52;1.83;;;1.70;;
17147;SDS011;8689;47.364;8.796;2023-12-20T10:31:27;1.80;;;1.67;;
17147;SDS011;8689;47.364;8.796;2023-12-20T10:33:56;4.27;;;2.00;;
17147;SDS011;8689;47.364;8.796;2023-12-20T10:36:25;1.83;;;1.50;;
17147;SDS011;8689;47.364;8.796;2023-12-20T10:38:55;1.80;;;1.70;;
17147;SDS011;8689;47.364;8.796;2023-12-20T10:41:24;1.27;;;1.17;;
17147;SDS011;8689;47.364;8.796;2023-12-20T10:43:55;1.60;;;1.40;;
17147;SDS011;8689;47.364;8.796;2023-12-20T10:46:25;1.73;;;1.37;;
17147;SDS011;8689;47.364;8.796;2023-12-20T10:48:53;1.90;;;1.07;;
17147;SDS011;8689;47.364;8.796;2023-12-20T10:51:21;1.33;;;1.20;;
17147;SDS011;8689;47.364;8.796;2023-12-20T10:53:49;1.07;;;0.97;;
17147;SDS011;8689;47.364;8.796;2023-12-20T10:56:17;1.23;;;1.13;;
17147;SDS011;8689;47.364;8.796;2023-12-20T10:58:46;1.70;;;1.20;;
17147;SDS011;8689;47.364;8.796;2023-12-20T11:01:18;1.70;;;1.27;;
17147;SDS011;8689;47.364;8.796;2023-12-20T11:03:48;3.00;;;1.20;;
17147;SDS011;8689;47.364;8.796;2023-12-20T11:06:25;1.30;;;1.20;;
17147;SDS011;8689;47.364;8.796;2023-12-20T11:08:57;1.23;;;1.13;;
17147;SDS011;8689;47.364;8.796;2023-12-20T11:11:37;1.47;;;1.17;;
17147;SDS011;8689;47.364;8.796;2023-12-20T11:14:14;1.27;;;1.00;;
17147;SDS011;8689;47.364;8.796;2023-12-20T11:16:46;1.33;;;1.10;;
17147;SDS011;8689;47.364;8.796;2023-12-20T11:19:14;1.20;;;1.10;;
17147;SDS011;8689;47.364;8.796;2023-12-20T11:21:41;1.40;;;1.00;;
17147;SDS011;8689;47.364;8.796;2023-12-20T11:24:09;1.50;;;1.30;;
17147;SDS011;8689;47.364;8.796;2023-12-20T11:26:37;1.57;;;1.10;;
17147;SDS011;8689;47.364;8.796;2023-12-20T11:31:58;1.30;;;1.20;;
17147;SDS011;8689;47.364;8.796;2023-12-20T11:34:27;1.37;;;1.03;;
17147;SDS011;8689;47.364;8.796;2023-12-20T11:36:59;1.03;;;0.90;;
17147;SDS011;8689;47.364;8.796;2023-12-20T11:39:34;1.30;;;1.20;;
17147;SDS011;8689;47.364;8.796;2023-12-20T11:42:07;1.27;;;1.17;;
17147;SDS011;8689;47.364;8.796;2023-12-20T11:44:36;1.53;;;1.03;;
17147;SDS011;8689;47.364;8.796;2023-12-20T11:47:05;1.20;;;1.00;;
17147;SDS011;8689;47.364;8.796;2023-12-20T11:49:33;1.30;;;1.00;;
17147;SDS011;8689;47.364;8.796;2023-12-20T11:52:00;1.20;;;1.10;;
17147;SDS011;8689;47.364;8.796;2023-12-20T11:54:29;3.10;;;1.50;;
17147;SDS011;8689;47.364;8.796;2023-12-20T11:57:06;1.33;;;1.23;;
17147;SDS011;8689;47.364;8.796;2023-12-20T11:59:45;1.33;;;1.20;;
17147;SDS011;8689;47.364;8.796;2023-12-20T12:02:14;1.37;;;1.20;;
17147;SDS011;8689;47.364;8.796;2023-12-20T12:04:42;1.40;;;1.30;;
17147;SDS011;8689;47.364;8.796;2023-12-20T12:07:15;2.03;;;1.50;;
17147;SDS011;8689;47.364;8.796;2023-12-20T12:09:50;1.50;;;1.30;;
17147;SDS011;8689;47.364;8.796;2023-12-20T12:12:31;1.97;;;1.73;;
17147;SDS011;8689;47.364;8.796;2023-12-20T12:14:59;2.20;;;2.00;;
17147;SDS011;8689;47.364;8.796;2023-12-20T12:17:29;1.87;;;1.60;;
17147;SDS011;8689;47.364;8.796;2023-12-20T12:20:04;1.80;;;1.70;;
17147;SDS011;8689;47.364;8.796;2023-12-20T12:22:33;2.23;;;2.03;;
17147;SDS011;8689;47.364;8.796;2023-12-20T12:25:15;2.27;;;1.80;;
17147;SDS011;8689;47.364;8.796;2023-12-20T12:27:50;4.23;;;1.67;;
17147;SDS011;8689;47.364;8.796;2023-12-20T12:36:54;1.93;;;1.70;;
17147;SDS011;8689;47.364;8.796;2023-12-20T12:39:26;1.70;;;1.60;;
17147;SDS011;8689;47.364;8.796;2023-12-20T12:42:03;1.20;;;1.10;;
17147;SDS011;8689;47.364;8.796;2023-12-20T12:44:57;1.50;;;1.40;;
17147;SDS011;8689;47.364;8.796;2023-12-20T12:51:08;1.93;;;1.50;;
17147;SDS011;8689;47.364;8.796;2023-12-20T12:53:39;1.30;;;1.20;;
17147;SDS011;8689;47.364;8.796;2023-12-20T12:56:51;1.00;;;1.00;;
17147;SDS011;8689;47.364;8.796;2023-12-20T12:59:43;2.87;;;1.50;;
17147;SDS011;8689;47.364;8.796;2023-12-20T14:18:05;3.13;;;2.93;;
17147;SDS011;8689;47.364;8.796;2023-12-20T14:27:29;3.13;;;2.93;;
